Aosta, Italia

11:35 AM CEST del 15 Settembre 2014 (GMT +0200)
Senin, Saint-Christophe | Change Station
CLOSE
Current Station
Stazione meteo personale
Location: Aosta, VALLE DAOSTA
Altitudine: 2392 ft
Stazioni meteo nelle vicinanze

Alt. 2392 ft 45.75 °N, 7.34 °E | Updated 9 seconds ago

Scattered Clouds
Nubi sparse
63.3 °F
Sembra 63.3 °F
N
2.0
Vento Variabile Vento da SSE
Gusts 3.0 mph

Oggi
Massima -- | Minima -- °F
--% Possibilità di precip.
Ieri
Massima -- | Minima -- °F
Precip. -- in
7:08 AM 7:42 PM
Gobba a levante, 57% visible
Pressione 30.01 in
Visibilità 6.2 miglia
Nuvole Alcuni 5000 ft
Nubi sparse 20000 ft
Punto di rugiada 55 °F
Umidità 74%
Piovosità 0.00 in
Spessore del manto nevoso Non disponibile.
Raggi UV 4 fuori da 12
Polline Non disponibile.
Qualità dell'aria Non disponibile.
Flu Activity Non disponibile.
METAR LSGS 150920Z VRB02KT 9999 FEW050 SCT200 19/13 Q1016

More Conditions Fewer Conditions

Pressione 30.01 in
Visibilità 6.2 miglia
Nuvole Alcuni 5000 ft
Nubi sparse 20000 ft
Punto di rugiada 55 °F
Umidità 74%
Piovosità 0.00 in
Spessore del manto nevoso Non disponibile.
Raggi UV 4 fuori da 12
Polline Non disponibile.
Qualità dell'aria Non disponibile.
Flu Activity Non disponibile.
METAR LSGS 150920Z VRB02KT 9999 FEW050 SCT200 19/13 Q1016

More Conditions Fewer Conditions

10-Day Weather Forecast

Almanac

Astronomia

Sep. 15, 2014 Alba Tramonto
Ora attuale 07:08 CEST 19:42 CEST
Crepuscolo civile 06:38 CEST 20:12 CEST
Crepuscolo nautico 06:03 CEST 20:47 CEST
Crepuscolo astronomico 05:26 CEST 21:24 CEST
Luna 23:53 CEST 14:12 CEST
Estensione della luce visibile 13h 33m
Lunghezza del giorno
12h 33m
Tomorrow will be 3m 11s shorter.
Gobba a levante, 57% of the Moon is Illuminated
Oggi
Gobba a levante
Set 15
Ultimo quarto
Set 24
Nuovo
Ott 1
Primo quarto
Ott 8
Luna piena

Minime e massime di ieri

Massime Regione Minime Regione

Community

WunderPhotos

Upload Photos

1,753,426 foto caricate!

Nearby

Qualità dell'aria

Not available.

Profondità neve

Not available.

Attività sismica

Città  Distanza Mag. Data & Ora
Non sono state riportate attività sismiche nelle vicinanze.
Minimo Magnitudo Mostrato è 2.5.

Temperature delle acque costiere

Località Temperatura
Nessun dato dalle stazioni

Stazioni meteo nelle vicinanze